sensor_id;sensor_type;location;lat;lon;timestamp;P1;durP1;ratioP1;P2;durP2;ratioP2
23490;SDS011;14683;50.038;8.078;2024-03-25T02:52:19;4.63;;;1.90;;
23490;SDS011;14683;50.038;8.078;2024-03-25T02:55:20;8.32;;;2.10;;
23490;SDS011;14683;50.038;8.078;2024-03-25T02:58:21;3.90;;;1.95;;
23490;SDS011;14683;50.038;8.078;2024-03-25T03:01:23;5.90;;;1.88;;
23490;SDS011;14683;50.038;8.078;2024-03-25T03:04:24;5.57;;;2.13;;
23490;SDS011;14683;50.038;8.078;2024-03-25T03:07:25;6.53;;;2.08;;
23490;SDS011;14683;50.038;8.078;2024-03-25T03:10:26;7.88;;;1.85;;
23490;SDS011;14683;50.038;8.078;2024-03-25T03:13:27;5.20;;;1.92;;
23490;SDS011;14683;50.038;8.078;2024-03-25T03:16:28;6.85;;;1.77;;
23490;SDS011;14683;50.038;8.078;2024-03-25T03:19:30;6.25;;;2.60;;
23490;SDS011;14683;50.038;8.078;2024-03-25T03:22:32;6.65;;;2.15;;
23490;SDS011;14683;50.038;8.078;2024-03-25T03:25:33;7.10;;;1.98;;
23490;SDS011;14683;50.038;8.078;2024-03-25T03:28:34;7.15;;;2.08;;
23490;SDS011;14683;50.038;8.078;2024-03-25T03:31:35;2.95;;;1.70;;
23490;SDS011;14683;50.038;8.078;2024-03-25T03:34:37;6.32;;;1.77;;
23490;SDS011;14683;50.038;8.078;2024-03-25T03:37:38;4.53;;;2.03;;
23490;SDS011;14683;50.038;8.078;2024-03-25T03:40:39;6.25;;;2.70;;
23490;SDS011;14683;50.038;8.078;2024-03-25T03:43:40;3.28;;;2.15;;
23490;SDS011;14683;50.038;8.078;2024-03-25T03:46:41;6.97;;;2.20;;
23490;SDS011;14683;50.038;8.078;2024-03-25T03:49:42;9.98;;;2.00;;
23490;SDS011;14683;50.038;8.078;2024-03-25T03:52:43;5.47;;;2.38;;
23490;SDS011;14683;50.038;8.078;2024-03-25T03:55:57;6.28;;;2.33;;
23490;SDS011;14683;50.038;8.078;2024-03-25T03:58:59;9.63;;;2.03;;
23490;SDS011;14683;50.038;8.078;2024-03-25T04:02:00;7.18;;;2.22;;
23490;SDS011;14683;50.038;8.078;2024-03-25T04:05:01;7.03;;;2.42;;
23490;SDS011;14683;50.038;8.078;2024-03-25T04:08:02;3.50;;;1.75;;
23490;SDS011;14683;50.038;8.078;2024-03-25T04:11:04;5.72;;;2.20;;
23490;SDS011;14683;50.038;8.078;2024-03-25T04:14:06;6.72;;;2.35;;
23490;SDS011;14683;50.038;8.078;2024-03-25T04:17:09;7.78;;;2.58;;
23490;SDS011;14683;50.038;8.078;2024-03-25T04:20:12;5.85;;;2.10;;
23490;SDS011;14683;50.038;8.078;2024-03-25T04:23:13;4.05;;;2.25;;
23490;SDS011;14683;50.038;8.078;2024-03-25T04:26:15;3.83;;;2.03;;
23490;SDS011;14683;50.038;8.078;2024-03-25T04:29:16;3.78;;;1.88;;
23490;SDS011;14683;50.038;8.078;2024-03-25T04:32:17;8.05;;;2.47;;
23490;SDS011;14683;50.038;8.078;2024-03-25T04:35:18;6.18;;;1.92;;
23490;SDS011;14683;50.038;8.078;2024-03-25T04:38:19;3.95;;;1.90;;
23490;SDS011;14683;50.038;8.078;2024-03-25T04:41:20;3.70;;;2.10;;
23490;SDS011;14683;50.038;8.078;2024-03-25T04:44:22;9.15;;;2.40;;
23490;SDS011;14683;50.038;8.078;2024-03-25T04:47:23;5.20;;;2.28;;
23490;SDS011;14683;50.038;8.078;2024-03-25T04:50:25;6.15;;;2.45;;
23490;SDS011;14683;50.038;8.078;2024-03-25T04:53:26;7.32;;;2.50;;
23490;SDS011;14683;50.038;8.078;2024-03-25T04:56:27;6.60;;;2.40;;
23490;SDS011;14683;50.038;8.078;2024-03-25T04:59:28;5.72;;;2.05;;
23490;SDS011;14683;50.038;8.078;2024-03-25T05:02:29;7.35;;;2.90;;
23490;SDS011;14683;50.038;8.078;2024-03-25T05:05:30;5.90;;;2.47;;
23490;SDS011;14683;50.038;8.078;2024-03-25T05:08:32;3.05;;;2.13;;
23490;SDS011;14683;50.038;8.078;2024-03-25T05:11:33;6.57;;;1.73;;
23490;SDS011;14683;50.038;8.078;2024-03-25T05:14:34;5.30;;;1.98;;
23490;SDS011;14683;50.038;8.078;2024-03-25T05:17:35;4.95;;;2.10;;
23490;SDS011;14683;50.038;8.078;2024-03-25T05:20:36;7.50;;;2.47;;
23490;SDS011;14683;50.038;8.078;2024-03-25T05:23:37;6.35;;;2.53;;
23490;SDS011;14683;50.038;8.078;2024-03-25T05:26:38;6.47;;;2.38;;
23490;SDS011;14683;50.038;8.078;2024-03-25T05:29:39;7.40;;;2.63;;
23490;SDS011;14683;50.038;8.078;2024-03-25T05:32:41;3.88;;;2.17;;
23490;SDS011;14683;50.038;8.078;2024-03-25T05:35:42;5.43;;;1.85;;
23490;SDS011;14683;50.038;8.078;2024-03-25T05:38:43;4.47;;;2.10;;
23490;SDS011;14683;50.038;8.078;2024-03-25T05:41:44;7.07;;;2.28;;
23490;SDS011;14683;50.038;8.078;2024-03-25T05:44:45;6.32;;;2.85;;
23490;SDS011;14683;50.038;8.078;2024-03-25T05:47:47;5.28;;;2.20;;
23490;SDS011;14683;50.038;8.078;2024-03-25T05:50:58;4.88;;;2.10;;
23490;SDS011;14683;50.038;8.078;2024-03-25T05:54:02;5.68;;;2.28;;
23490;SDS011;14683;50.038;8.078;2024-03-25T05:57:03;3.67;;;2.00;;
23490;SDS011;14683;50.038;8.078;2024-03-25T06:00:05;5.55;;;2.00;;
23490;SDS011;14683;50.038;8.078;2024-03-25T06:03:12;5.80;;;2.30;;
23490;SDS011;14683;50.038;8.078;2024-03-25T06:06:13;6.95;;;2.10;;
23490;SDS011;14683;50.038;8.078;2024-03-25T06:09:15;5.00;;;2.15;;
23490;SDS011;14683;50.038;8.078;2024-03-25T06:12:16;4.82;;;2.35;;
23490;SDS011;14683;50.038;8.078;2024-03-25T06:15:17;4.68;;;2.20;;
23490;SDS011;14683;50.038;8.078;2024-03-25T06:18:18;4.95;;;2.20;;
23490;SDS011;14683;50.038;8.078;2024-03-25T06:21:19;3.28;;;2.17;;
23490;SDS011;14683;50.038;8.078;2024-03-25T06:24:21;6.22;;;2.22;;
23490;SDS011;14683;50.038;8.078;2024-03-25T06:27:22;5.72;;;2.28;;
23490;SDS011;14683;50.038;8.078;2024-03-25T06:30:23;4.22;;;2.15;;
23490;SDS011;14683;50.038;8.078;2024-03-25T06:33:42;6.53;;;2.60;;
23490;SDS011;14683;50.038;8.078;2024-03-25T06:37:02;5.85;;;1.90;;
23490;SDS011;14683;50.038;8.078;2024-03-25T06:40:05;3.90;;;1.90;;
23490;SDS011;14683;50.038;8.078;2024-03-25T06:43:07;6.15;;;2.60;;
23490;SDS011;14683;50.038;8.078;2024-03-25T06:46:08;5.60;;;2.40;;
23490;SDS011;14683;50.038;8.078;2024-03-25T06:49:09;4.30;;;2.08;;
23490;SDS011;14683;50.038;8.078;2024-03-25T06:52:10;6.20;;;2.15;;
23490;SDS011;14683;50.038;8.078;2024-03-25T06:55:11;6.90;;;2.40;;
23490;SDS011;14683;50.038;8.078;2024-03-25T06:58:13;5.00;;;2.50;;
23490;SDS011;14683;50.038;8.078;2024-03-25T07:01:14;5.22;;;2.80;;
23490;SDS011;14683;50.038;8.078;2024-03-25T07:04:15;6.38;;;2.42;;
23490;SDS011;14683;50.038;8.078;2024-03-25T07:07:16;7.03;;;2.90;;
23490;SDS011;14683;50.038;8.078;2024-03-25T07:10:17;4.28;;;1.88;;
23490;SDS011;14683;50.038;8.078;2024-03-25T07:13:20;4.75;;;2.10;;
23490;SDS011;14683;50.038;8.078;2024-03-25T07:16:23;6.18;;;2.30;;
23490;SDS011;14683;50.038;8.078;2024-03-25T07:19:24;6.55;;;2.60;;
23490;SDS011;14683;50.038;8.078;2024-03-25T07:22:25;5.80;;;2.30;;
23490;SDS011;14683;50.038;8.078;2024-03-25T07:25:26;4.10;;;2.08;;
23490;SDS011;14683;50.038;8.078;2024-03-25T07:28:27;6.60;;;2.83;;
23490;SDS011;14683;50.038;8.078;2024-03-25T07:31:28;5.57;;;2.03;;
23490;SDS011;14683;50.038;8.078;2024-03-25T07:34:29;5.80;;;2.53;;
23490;SDS011;14683;50.038;8.078;2024-03-25T07:37:31;5.13;;;2.10;;
23490;SDS011;14683;50.038;8.078;2024-03-25T07:40:32;3.80;;;2.13;;
23490;SDS011;14683;50.038;8.078;2024-03-25T07:43:33;8.50;;;2.45;;
23490;SDS011;14683;50.038;8.078;2024-03-25T07:46:34;5.10;;;1.92;;
23490;SDS011;14683;50.038;8.078;2024-03-25T07:49:36;6.10;;;2.50;;
23490;SDS011;14683;50.038;8.078;2024-03-25T07:52:37;6.03;;;2.45;;
23490;SDS011;14683;50.038;8.078;2024-03-25T07:55:41;7.35;;;3.03;;
23490;SDS011;14683;50.038;8.078;2024-03-25T07:58:42;8.00;;;2.35;;
23490;SDS011;14683;50.038;8.078;2024-03-25T08:01:43;5.20;;;2.35;;
23490;SDS011;14683;50.038;8.078;2024-03-25T08:04:45;6.53;;;2.22;;
23490;SDS011;14683;50.038;8.078;2024-03-25T08:07:47;6.88;;;2.67;;
23490;SDS011;14683;50.038;8.078;2024-03-25T08:10:48;6.30;;;2.33;;
23490;SDS011;14683;50.038;8.078;2024-03-25T08:13:49;6.05;;;2.33;;
23490;SDS011;14683;50.038;8.078;2024-03-25T08:16:50;6.78;;;2.40;;
23490;SDS011;14683;50.038;8.078;2024-03-25T08:19:54;5.88;;;2.67;;
23490;SDS011;14683;50.038;8.078;2024-03-25T08:22:55;6.60;;;2.10;;
23490;SDS011;14683;50.038;8.078;2024-03-25T08:25:56;4.78;;;2.65;;
23490;SDS011;14683;50.038;8.078;2024-03-25T08:28:57;7.65;;;2.60;;
23490;SDS011;14683;50.038;8.078;2024-03-25T08:31:59;5.85;;;2.50;;
23490;SDS011;14683;50.038;8.078;2024-03-25T08:35:00;7.18;;;1.80;;
23490;SDS011;14683;50.038;8.078;2024-03-25T08:38:01;5.63;;;2.05;;
23490;SDS011;14683;50.038;8.078;2024-03-25T08:41:02;6.72;;;2.30;;
23490;SDS011;14683;50.038;8.078;2024-03-25T08:44:03;4.53;;;1.90;;
23490;SDS011;14683;50.038;8.078;2024-03-25T08:47:04;6.28;;;2.45;;
23490;SDS011;14683;50.038;8.078;2024-03-25T08:50:05;4.32;;;2.00;;
23490;SDS011;14683;50.038;8.078;2024-03-25T08:53:07;5.72;;;2.40;;
23490;SDS011;14683;50.038;8.078;2024-03-25T08:56:08;7.13;;;2.78;;
23490;SDS011;14683;50.038;8.078;2024-03-25T08:59:10;5.05;;;2.15;;
23490;SDS011;14683;50.038;8.078;2024-03-25T09:02:11;8.63;;;2.80;;
23490;SDS011;14683;50.038;8.078;2024-03-25T09:05:12;5.28;;;2.60;;
23490;SDS011;14683;50.038;8.078;2024-03-25T09:08:14;5.55;;;2.28;;
23490;SDS011;14683;50.038;8.078;2024-03-25T09:11:15;6.75;;;2.83;;
23490;SDS011;14683;50.038;8.078;2024-03-25T09:14:17;6.90;;;2.45;;
23490;SDS011;14683;50.038;8.078;2024-03-25T09:17:18;6.03;;;2.80;;
23490;SDS011;14683;50.038;8.078;2024-03-25T09:20:20;4.55;;;2.33;;
23490;SDS011;14683;50.038;8.078;2024-03-25T09:23:21;4.72;;;2.30;;
23490;SDS011;14683;50.038;8.078;2024-03-25T09:26:23;4.72;;;2.20;;
23490;SDS011;14683;50.038;8.078;2024-03-25T09:29:24;4.50;;;2.28;;
23490;SDS011;14683;50.038;8.078;2024-03-25T09:32:25;9.77;;;2.30;;
23490;SDS011;14683;50.038;8.078;2024-03-25T09:35:27;6.32;;;3.00;;
23490;SDS011;14683;50.038;8.078;2024-03-25T09:38:28;9.73;;;3.47;;
23490;SDS011;14683;50.038;8.078;2024-03-25T09:41:29;5.40;;;2.28;;
23490;SDS011;14683;50.038;8.078;2024-03-25T09:44:35;5.88;;;2.10;;
23490;SDS011;14683;50.038;8.078;2024-03-25T09:47:36;4.32;;;1.90;;
23490;SDS011;14683;50.038;8.078;2024-03-25T09:50:40;7.93;;;2.03;;
23490;SDS011;14683;50.038;8.078;2024-03-25T09:53:41;5.82;;;2.33;;
23490;SDS011;14683;50.038;8.078;2024-03-25T09:56:42;9.40;;;2.35;;
23490;SDS011;14683;50.038;8.078;2024-03-25T09:59:44;4.28;;;2.00;;
23490;SDS011;14683;50.038;8.078;2024-03-25T10:02:45;7.25;;;2.30;;
23490;SDS011;14683;50.038;8.078;2024-03-25T10:05:46;6.18;;;2.38;;
23490;SDS011;14683;50.038;8.078;2024-03-25T10:08:47;4.72;;;2.20;;
23490;SDS011;14683;50.038;8.078;2024-03-25T10:11:48;5.10;;;2.30;;
23490;SDS011;14683;50.038;8.078;2024-03-25T10:14:50;4.45;;;2.00;;
23490;SDS011;14683;50.038;8.078;2024-03-25T10:17:51;6.53;;;2.05;;
23490;SDS011;14683;50.038;8.078;2024-03-25T10:20:53;4.57;;;1.95;;
23490;SDS011;14683;50.038;8.078;2024-03-25T10:23:54;5.43;;;1.75;;
23490;SDS011;14683;50.038;8.078;2024-03-25T10:26:56;5.10;;;2.20;;
23490;SDS011;14683;50.038;8.078;2024-03-25T10:30:00;3.80;;;1.80;;
23490;SDS011;14683;50.038;8.078;2024-03-25T10:33:03;7.10;;;1.88;;
23490;SDS011;14683;50.038;8.078;2024-03-25T10:36:05;4.32;;;1.88;;
23490;SDS011;14683;50.038;8.078;2024-03-25T10:39:08;6.47;;;2.03;;
23490;SDS011;14683;50.038;8.078;2024-03-25T10:42:10;3.83;;;2.00;;
23490;SDS011;14683;50.038;8.078;2024-03-25T10:45:14;4.20;;;1.77;;
23490;SDS011;14683;50.038;8.078;2024-03-25T10:48:19;6.03;;;2.20;;
23490;SDS011;14683;50.038;8.078;2024-03-25T10:51:22;5.78;;;1.92;;
23490;SDS011;14683;50.038;8.078;2024-03-25T10:54:24;5.00;;;1.88;;
23490;SDS011;14683;50.038;8.078;2024-03-25T10:57:26;4.97;;;1.60;;
23490;SDS011;14683;50.038;8.078;2024-03-25T11:00:29;4.28;;;1.60;;
23490;SDS011;14683;50.038;8.078;2024-03-25T11:03:30;4.32;;;2.08;;
23490;SDS011;14683;50.038;8.078;2024-03-25T11:06:33;3.80;;;1.58;;
23490;SDS011;14683;50.038;8.078;2024-03-25T11:09:34;5.75;;;1.90;;
23490;SDS011;14683;50.038;8.078;2024-03-25T11:12:35;7.43;;;2.05;;
23490;SDS011;14683;50.038;8.078;2024-03-25T11:15:41;4.40;;;1.70;;
23490;SDS011;14683;50.038;8.078;2024-03-25T11:18:50;3.85;;;1.85;;
23490;SDS011;14683;50.038;8.078;2024-03-25T11:21:52;3.30;;;1.65;;
23490;SDS011;14683;50.038;8.078;2024-03-25T11:24:54;3.88;;;1.73;;
23490;SDS011;14683;50.038;8.078;2024-03-25T11:27:55;3.50;;;1.98;;
23490;SDS011;14683;50.038;8.078;2024-03-25T11:30:56;3.25;;;1.38;;
23490;SDS011;14683;50.038;8.078;2024-03-25T11:33:57;4.50;;;2.03;;
23490;SDS011;14683;50.038;8.078;2024-03-25T11:37:08;3.67;;;1.73;;
23490;SDS011;14683;50.038;8.078;2024-03-25T11:40:10;3.58;;;1.70;;
23490;SDS011;14683;50.038;8.078;2024-03-25T11:43:19;3.03;;;1.52;;
23490;SDS011;14683;50.038;8.078;2024-03-25T11:46:24;6.20;;;2.10;;
23490;SDS011;14683;50.038;8.078;2024-03-25T11:49:25;2.50;;;1.73;;
23490;SDS011;14683;50.038;8.078;2024-03-25T11:52:31;3.17;;;1.77;;
23490;SDS011;14683;50.038;8.078;2024-03-25T11:55:32;8.77;;;2.15;;
23490;SDS011;14683;50.038;8.078;2024-03-25T11:58:33;4.28;;;1.40;;
23490;SDS011;14683;50.038;8.078;2024-03-25T12:01:34;3.80;;;1.58;;
23490;SDS011;14683;50.038;8.078;2024-03-25T12:04:41;4.18;;;1.88;;
23490;SDS011;14683;50.038;8.078;2024-03-25T12:07:43;3.83;;;1.92;;
23490;SDS011;14683;50.038;8.078;2024-03-25T12:10:44;4.63;;;2.13;;
23490;SDS011;14683;50.038;8.078;2024-03-25T12:14:04;3.47;;;1.38;;
23490;SDS011;14683;50.038;8.078;2024-03-25T12:17:06;2.72;;;1.20;;
23490;SDS011;14683;50.038;8.078;2024-03-25T12:20:07;3.63;;;1.50;;
23490;SDS011;14683;50.038;8.078;2024-03-25T12:23:10;4.95;;;1.60;;
23490;SDS011;14683;50.038;8.078;2024-03-25T12:26:11;4.72;;;1.63;;
23490;SDS011;14683;50.038;8.078;2024-03-25T12:29:13;5.15;;;1.80;;
23490;SDS011;14683;50.038;8.078;2024-03-25T12:32:14;2.63;;;1.55;;
23490;SDS011;14683;50.038;8.078;2024-03-25T12:35:16;5.57;;;1.80;;
23490;SDS011;14683;50.038;8.078;2024-03-25T12:41:24;7.60;;;2.28;;
23490;SDS011;14683;50.038;8.078;2024-03-25T12:44:25;6.32;;;2.08;;
23490;SDS011;14683;50.038;8.078;2024-03-25T12:47:26;5.13;;;2.17;;
23490;SDS011;14683;50.038;8.078;2024-03-25T12:50:28;5.28;;;2.20;;
23490;SDS011;14683;50.038;8.078;2024-03-25T12:53:30;6.80;;;2.58;;
23490;SDS011;14683;50.038;8.078;2024-03-25T12:56:31;5.47;;;2.92;;
23490;SDS011;14683;50.038;8.078;2024-03-25T12:59:33;3.08;;;2.60;;
23490;SDS011;14683;50.038;8.078;2024-03-25T13:02:34;4.45;;;2.20;;
23490;SDS011;14683;50.038;8.078;2024-03-25T13:05:35;4.35;;;1.92;;
23490;SDS011;14683;50.038;8.078;2024-03-25T13:08:37;3.05;;;1.80;;
23490;SDS011;14683;50.038;8.078;2024-03-25T13:11:38;2.85;;;1.80;;
23490;SDS011;14683;50.038;8.078;2024-03-25T13:14:39;4.95;;;1.83;;
23490;SDS011;14683;50.038;8.078;2024-03-25T13:17:40;4.00;;;1.88;;
23490;SDS011;14683;50.038;8.078;2024-03-25T13:20:41;3.88;;;1.85;;
23490;SDS011;14683;50.038;8.078;2024-03-25T13:23:44;7.38;;;2.00;;
23490;SDS011;14683;50.038;8.078;2024-03-25T13:26:45;23.77;;;5.43;;
23490;SDS011;14683;50.038;8.078;2024-03-25T13:29:46;5.15;;;2.95;;
23490;SDS011;14683;50.038;8.078;2024-03-25T13:32:48;10.18;;;5.80;;
23490;SDS011;14683;50.038;8.078;2024-03-25T13:35:49;4.25;;;1.95;;
23490;SDS011;14683;50.038;8.078;2024-03-25T13:38:50;4.95;;;2.88;;
23490;SDS011;14683;50.038;8.078;2024-03-25T13:41:51;8.48;;;3.13;;
23490;SDS011;14683;50.038;8.078;2024-03-25T13:44:52;4.32;;;2.50;;
23490;SDS011;14683;50.038;8.078;2024-03-25T13:47:53;4.22;;;1.85;;
23490;SDS011;14683;50.038;8.078;2024-03-25T13:50:55;4.10;;;1.70;;
23490;SDS011;14683;50.038;8.078;2024-03-25T13:53:56;4.60;;;3.30;;
23490;SDS011;14683;50.038;8.078;2024-03-25T13:56:57;4.47;;;2.65;;
23490;SDS011;14683;50.038;8.078;2024-03-25T13:59:58;6.00;;;2.30;;
23490;SDS011;14683;50.038;8.078;2024-03-25T14:02:59;12.02;;;2.33;;
23490;SDS011;14683;50.038;8.078;2024-03-25T14:06:00;5.03;;;2.10;;
23490;SDS011;14683;50.038;8.078;2024-03-25T14:09:02;4.75;;;2.15;;
23490;SDS011;14683;50.038;8.078;2024-03-25T14:12:09;4.53;;;2.37;;
23490;SDS011;14683;50.038;8.078;2024-03-25T14:15:11;2.97;;;2.13;;
23490;SDS011;14683;50.038;8.078;2024-03-25T14:18:12;3.15;;;1.60;;
23490;SDS011;14683;50.038;8.078;2024-03-25T14:21:13;5.22;;;1.90;;
23490;SDS011;14683;50.038;8.078;2024-03-25T14:24:14;2.97;;;1.80;;
23490;SDS011;14683;50.038;8.078;2024-03-25T14:27:15;6.90;;;2.05;;
23490;SDS011;14683;50.038;8.078;2024-03-25T14:30:16;4.57;;;2.08;;
23490;SDS011;14683;50.038;8.078;2024-03-25T14:33:17;5.10;;;2.20;;
23490;SDS011;14683;50.038;8.078;2024-03-25T14:36:19;7.20;;;2.63;;
23490;SDS011;14683;50.038;8.078;2024-03-25T14:39:20;3.35;;;2.47;;
23490;SDS011;14683;50.038;8.078;2024-03-25T14:42:21;4.65;;;2.40;;
23490;SDS011;14683;50.038;8.078;2024-03-25T14:45:22;2.10;;;1.90;;
23490;SDS011;14683;50.038;8.078;2024-03-25T14:48:24;3.90;;;3.50;;
23490;SDS011;14683;50.038;8.078;2024-03-25T14:51:25;3.63;;;3.30;;
23490;SDS011;14683;50.038;8.078;2024-03-25T14:54:33;3.90;;;2.30;;
23490;SDS011;14683;50.038;8.078;2024-03-25T15:00:36;3.88;;;2.60;;
23490;SDS011;14683;50.038;8.078;2024-03-25T15:03:37;5.35;;;2.45;;
23490;SDS011;14683;50.038;8.078;2024-03-25T15:06:39;8.55;;;6.07;;
23490;SDS011;14683;50.038;8.078;2024-03-25T15:09:40;4.70;;;2.70;;
23490;SDS011;14683;50.038;8.078;2024-03-25T15:12:41;3.83;;;2.35;;
23490;SDS011;14683;50.038;8.078;2024-03-25T15:15:42;4.93;;;2.20;;
23490;SDS011;14683;50.038;8.078;2024-03-25T15:18:45;4.03;;;2.40;;
23490;SDS011;14683;50.038;8.078;2024-03-25T15:21:46;4.75;;;2.03;;
23490;SDS011;14683;50.038;8.078;2024-03-25T15:24:47;6.28;;;4.13;;
23490;SDS011;14683;50.038;8.078;2024-03-25T15:27:49;2.28;;;1.70;;
23490;SDS011;14683;50.038;8.078;2024-03-25T15:30:50;4.25;;;2.00;;
23490;SDS011;14683;50.038;8.078;2024-03-25T15:33:51;2.35;;;1.52;;
23490;SDS011;14683;50.038;8.078;2024-03-25T15:36:53;3.75;;;1.63;;
23490;SDS011;14683;50.038;8.078;2024-03-25T15:39:54;3.10;;;1.50;;
23490;SDS011;14683;50.038;8.078;2024-03-25T15:42:57;3.63;;;1.50;;
23490;SDS011;14683;50.038;8.078;2024-03-25T15:46:01;2.17;;;1.20;;
23490;SDS011;14683;50.038;8.078;2024-03-25T15:49:02;2.55;;;1.27;;
23490;SDS011;14683;50.038;8.078;2024-03-25T15:52:03;5.40;;;1.52;;
23490;SDS011;14683;50.038;8.078;2024-03-25T15:55:04;3.05;;;1.30;;
23490;SDS011;14683;50.038;8.078;2024-03-25T15:58:06;3.67;;;1.45;;
23490;SDS011;14683;50.038;8.078;2024-03-25T16:01:08;3.05;;;1.58;;
23490;SDS011;14683;50.038;8.078;2024-03-25T16:04:09;8.88;;;1.77;;
23490;SDS011;14683;50.038;8.078;2024-03-25T16:07:10;2.15;;;1.90;;
23490;SDS011;14683;50.038;8.078;2024-03-25T16:10:11;2.97;;;1.70;;
23490;SDS011;14683;50.038;8.078;2024-03-25T16:13:13;4.53;;;1.48;;
23490;SDS011;14683;50.038;8.078;2024-03-25T16:16:15;2.42;;;1.40;;
23490;SDS011;14683;50.038;8.078;2024-03-25T16:19:17;4.47;;;1.88;;
23490;SDS011;14683;50.038;8.078;2024-03-25T16:22:18;2.55;;;2.05;;
23490;SDS011;14683;50.038;8.078;2024-03-25T16:25:19;2.33;;;1.55;;
23490;SDS011;14683;50.038;8.078;2024-03-25T16:28:20;3.20;;;1.42;;
23490;SDS011;14683;50.038;8.078;2024-03-25T16:31:21;2.72;;;1.35;;
23490;SDS011;14683;50.038;8.078;2024-03-25T16:34:22;3.25;;;1.52;;
23490;SDS011;14683;50.038;8.078;2024-03-25T16:37:24;2.60;;;1.20;;
23490;SDS011;14683;50.038;8.078;2024-03-25T16:40:25;2.70;;;1.42;;
23490;SDS011;14683;50.038;8.078;2024-03-25T16:43:26;1.95;;;1.10;;
23490;SDS011;14683;50.038;8.078;2024-03-25T16:46:27;1.63;;;0.98;;
23490;SDS011;14683;50.038;8.078;2024-03-25T16:49:28;3.17;;;1.30;;
23490;SDS011;14683;50.038;8.078;2024-03-25T16:52:30;4.45;;;1.60;;
23490;SDS011;14683;50.038;8.078;2024-03-25T16:55:31;3.47;;;1.58;;
23490;SDS011;14683;50.038;8.078;2024-03-25T16:58:32;3.42;;;1.30;;
23490;SDS011;14683;50.038;8.078;2024-03-25T17:01:33;1.88;;;1.33;;
23490;SDS011;14683;50.038;8.078;2024-03-25T17:04:34;2.90;;;1.15;;
23490;SDS011;14683;50.038;8.078;2024-03-25T17:07:35;2.38;;;1.33;;
23490;SDS011;14683;50.038;8.078;2024-03-25T17:10:38;3.15;;;1.40;;
23490;SDS011;14683;50.038;8.078;2024-03-25T17:13:39;2.47;;;1.08;;
23490;SDS011;14683;50.038;8.078;2024-03-25T17:16:41;4.25;;;1.20;;
23490;SDS011;14683;50.038;8.078;2024-03-25T17:19:42;3.58;;;2.17;;
23490;SDS011;14683;50.038;8.078;2024-03-25T17:22:43;5.22;;;2.88;;
23490;SDS011;14683;50.038;8.078;2024-03-25T17:25:44;7.80;;;2.60;;
23490;SDS011;14683;50.038;8.078;2024-03-25T17:28:45;4.20;;;2.30;;
23490;SDS011;14683;50.038;8.078;2024-03-25T17:31:48;4.82;;;2.13;;
23490;SDS011;14683;50.038;8.078;2024-03-25T17:34:49;3.20;;;2.00;;
23490;SDS011;14683;50.038;8.078;2024-03-25T17:37:50;4.18;;;1.90;;
23490;SDS011;14683;50.038;8.078;2024-03-25T17:40:52;5.22;;;1.92;;
23490;SDS011;14683;50.038;8.078;2024-03-25T17:43:53;4.55;;;1.60;;
23490;SDS011;14683;50.038;8.078;2024-03-25T17:46:54;2.63;;;1.42;;
23490;SDS011;14683;50.038;8.078;2024-03-25T17:49:57;4.00;;;1.67;;
23490;SDS011;14683;50.038;8.078;2024-03-25T17:52:58;3.10;;;1.50;;
23490;SDS011;14683;50.038;8.078;2024-03-25T17:55:59;3.40;;;1.63;;
23490;SDS011;14683;50.038;8.078;2024-03-25T17:59:00;2.55;;;1.45;;
23490;SDS011;14683;50.038;8.078;2024-03-25T18:02:02;3.85;;;1.88;;
23490;SDS011;14683;50.038;8.078;2024-03-25T18:05:03;4.47;;;1.67;;
23490;SDS011;14683;50.038;8.078;2024-03-25T18:08:06;3.05;;;1.60;;
23490;SDS011;14683;50.038;8.078;2024-03-25T18:11:08;3.17;;;1.35;;
23490;SDS011;14683;50.038;8.078;2024-03-25T18:14:09;3.42;;;1.60;;
23490;SDS011;14683;50.038;8.078;2024-03-25T18:17:10;4.57;;;2.22;;
23490;SDS011;14683;50.038;8.078;2024-03-25T18:20:12;3.33;;;2.08;;
23490;SDS011;14683;50.038;8.078;2024-03-25T18:23:14;7.63;;;2.80;;
23490;SDS011;14683;50.038;8.078;2024-03-25T18:26:15;5.32;;;2.38;;
23490;SDS011;14683;50.038;8.078;2024-03-25T18:29:16;5.28;;;2.10;;
23490;SDS011;14683;50.038;8.078;2024-03-25T18:32:18;7.72;;;2.80;;
23490;SDS011;14683;50.038;8.078;2024-03-25T18:35:19;5.57;;;3.42;;
23490;SDS011;14683;50.038;8.078;2024-03-25T18:38:20;5.50;;;2.55;;
23490;SDS011;14683;50.038;8.078;2024-03-25T18:41:21;3.25;;;2.10;;
23490;SDS011;14683;50.038;8.078;2024-03-25T18:44:22;4.55;;;2.45;;
23490;SDS011;14683;50.038;8.078;2024-03-25T18:47:24;7.13;;;3.25;;
23490;SDS011;14683;50.038;8.078;2024-03-25T18:50:25;7.30;;;3.50;;
23490;SDS011;14683;50.038;8.078;2024-03-25T18:53:26;4.57;;;2.65;;
23490;SDS011;14683;50.038;8.078;2024-03-25T18:56:27;4.80;;;2.28;;
23490;SDS011;14683;50.038;8.078;2024-03-25T18:59:28;3.40;;;1.65;;
23490;SDS011;14683;50.038;8.078;2024-03-25T19:02:29;4.63;;;2.25;;
23490;SDS011;14683;50.038;8.078;2024-03-25T19:05:30;6.30;;;2.10;;
23490;SDS011;14683;50.038;8.078;2024-03-25T19:08:32;5.50;;;1.95;;
23490;SDS011;14683;50.038;8.078;2024-03-25T19:11:33;5.65;;;2.85;;
23490;SDS011;14683;50.038;8.078;2024-03-25T19:14:36;9.57;;;6.15;;
23490;SDS011;14683;50.038;8.078;2024-03-25T19:17:37;10.18;;;7.47;;
23490;SDS011;14683;50.038;8.078;2024-03-25T19:20:38;7.45;;;4.80;;
23490;SDS011;14683;50.038;8.078;2024-03-25T19:23:39;5.78;;;3.10;;
23490;SDS011;14683;50.038;8.078;2024-03-25T19:26:40;6.63;;;3.42;;
23490;SDS011;14683;50.038;8.078;2024-03-25T19:29:42;8.27;;;2.90;;
23490;SDS011;14683;50.038;8.078;2024-03-25T19:32:43;4.63;;;3.00;;
23490;SDS011;14683;50.038;8.078;2024-03-25T19:35:44;6.30;;;4.00;;
23490;SDS011;14683;50.038;8.078;2024-03-25T19:38:45;6.95;;;4.72;;
23490;SDS011;14683;50.038;8.078;2024-03-25T19:41:47;7.20;;;4.82;;
23490;SDS011;14683;50.038;8.078;2024-03-25T19:44:48;5.97;;;4.35;;
23490;SDS011;14683;50.038;8.078;2024-03-25T19:47:49;4.15;;;3.15;;
23490;SDS011;14683;50.038;8.078;2024-03-25T19:50:50;3.70;;;2.60;;
23490;SDS011;14683;50.038;8.078;2024-03-25T19:53:51;4.07;;;2.50;;
23490;SDS011;14683;50.038;8.078;2024-03-25T19:56:52;3.38;;;2.13;;
23490;SDS011;14683;50.038;8.078;2024-03-25T19:59:53;2.65;;;1.60;;
23490;SDS011;14683;50.038;8.078;2024-03-25T20:02:56;2.97;;;2.20;;
23490;SDS011;14683;50.038;8.078;2024-03-25T20:05:57;3.22;;;1.58;;
23490;SDS011;14683;50.038;8.078;2024-03-25T20:08:58;3.13;;;1.63;;
23490;SDS011;14683;50.038;8.078;2024-03-25T20:11:59;4.25;;;1.85;;
23490;SDS011;14683;50.038;8.078;2024-03-25T20:15:00;3.40;;;2.00;;
23490;SDS011;14683;50.038;8.078;2024-03-25T20:18:02;5.68;;;1.95;;
23490;SDS011;14683;50.038;8.078;2024-03-25T20:21:03;3.10;;;1.77;;
23490;SDS011;14683;50.038;8.078;2024-03-25T20:24:05;4.10;;;1.65;;
23490;SDS011;14683;50.038;8.078;2024-03-25T20:27:06;3.55;;;1.90;;
23490;SDS011;14683;50.038;8.078;2024-03-25T20:30:07;4.60;;;1.98;;
23490;SDS011;14683;50.038;8.078;2024-03-25T20:33:08;3.63;;;1.90;;
23490;SDS011;14683;50.038;8.078;2024-03-25T20:36:10;4.47;;;2.40;;
23490;SDS011;14683;50.038;8.078;2024-03-25T20:39:11;6.65;;;3.95;;
23490;SDS011;14683;50.038;8.078;2024-03-25T20:42:12;4.43;;;3.65;;
23490;SDS011;14683;50.038;8.078;2024-03-25T20:45:14;3.90;;;2.60;;
23490;SDS011;14683;50.038;8.078;2024-03-25T20:48:15;4.18;;;3.17;;
